Flight Track Log - Related Links

Times and Time Zones

All times are in EDT time to prevent confusion due to time zone crossing. See the CTL62 flight status page for this flight to view local times or setup timezone preferences in your user account.

Time Position Orientation Groundspeed Altitude Reporting Facility
EDT Latitude Longitude Course Direction KTS MPH feet Rate Location/Type
10:04PM 40.0761 -83.0903 287° West 117 135 1,100  Level Indianapolis Center
10:05PM 40.0858 -83.1322 287° West 148 170 1,700 571 Climbing Indianapolis Center
10:06PM 40.1069 -83.1753 303° West 151 174 2,100 605 Climbing Indianapolis Center
10:07PM 40.1311 -83.2244 303° West 157 181 2,900 732 Climbing Indianapolis Center
10:08PM 40.1542 -83.2722 302° West 156 180 3,600 634 Climbing Indianapolis Center
10:09PM 40.1783 -83.3175 305° West 154 177 4,200 634 Climbing Indianapolis Center
10:10PM 40.2014 -83.3658 302° West 154 177 4,900 590 Climbing Indianapolis Center
10:11PM 40.2228 -83.4150 300° West 154 177 5,400 492 Climbing Indianapolis Center
10:12PM 40.2461 -83.4708 299° West 153 176 5,900 341 Climbing Indianapolis Center
10:13PM 40.2653 -83.5119 301° West 153 176 6,100 98 Climbing Indianapolis Center
10:14PM 40.2892 -83.5639 301° West 159 183 6,100  Level Indianapolis Center
10:15PM 40.3128 -83.6175 300° West 164 189 6,100  Level Indianapolis Center
10:16PM 40.3358 -83.6706 300° West 166 191 6,100  Level Indianapolis Center
10:17PM 40.3628 -83.7317 300° West 165 190 6,100  Level Indianapolis Center
10:18PM 40.3867 -83.7844 301° West 167 192 6,100  Level Indianapolis Center
10:19PM 40.4106 -83.8356 302° West 165 190 6,100  Level Indianapolis Center
10:20PM 40.4353 -83.8861 303° West 164 189 6,100  Level Indianapolis Center
10:21PM 40.4581 -83.9386 300° West 164 189 6,100  Level Indianapolis Center
10:22PM 40.4808 -83.9911 300° West 164 189 6,100  Level Indianapolis Center
10:23PM 40.5039 -84.0414 301° West 162 186 6,100  Level Indianapolis Center
10:24PM 40.5261 -84.0914 300° West 160 184 6,100  Level Indianapolis Center
10:25PM 40.5478 -84.1408 300° West 157 181 6,100  Level Indianapolis Center
10:26PM 40.5708 -84.1908 301° West 157 181 6,100  Level Indianapolis Center
10:27PM 40.5931 -84.2394 301° West 156 180 6,100  Level Indianapolis Center
10:28PM 40.6156 -84.2889 301° West 155 178 6,100  Level Indianapolis Center
10:29PM 40.6364 -84.3372 300° West 153 176 6,100 -57 Level Indianapolis Center
10:30PM 40.6550 -84.3756 303° West 154 177 6,000 -57 Descending Chicago Center
10:31PM 40.6778 -84.4222 303° West 154 177 6,000  Level Chicago Center
10:32PM 40.6992 -84.4708 300° West 153 176 6,000  Level Chicago Center
10:33PM 40.7203 -84.5206 299° West 154 177 6,000  Level Chicago Center
10:34PM 40.7417 -84.5706 299° West 155 178 6,000  Level Chicago Center
10:35PM 40.7625 -84.6200 299° West 156 180 6,000  Level Chicago Center
10:36PM 40.7847 -84.6692 301° West 156 180 6,000  Level Chicago Center
10:37PM 40.8108 -84.7300 300° West 157 181 6,000  Level Chicago Center
10:38PM 40.8331 -84.7803 300° West 158 182 6,000  Level Chicago Center
10:39PM 40.8550 -84.8286 301° West 156 180 6,000  Level Chicago Center
10:40PM 40.8742 -84.8739 299° West 147 169 6,000 -98 Level Chicago Center
10:41PM 40.8925 -84.9197 298° West 141 162 5,800 -492 Descending Chicago Center
10:42PM 40.9144 -84.9633 304° West 143 165 5,000 -732 Descending Chicago Center
10:43PM 40.9358 -85.0161 298° West 150 173 4,300 -488 Descending Chicago Center
10:44PM 40.9592 -85.0683 301° West 158 182 4,000 -148 Descending Chicago Center
10:45PM 40.9817 -85.1203 300° West 162 186 4,000  Level Chicago Center
10:46PM 41.0072 -85.1828 298° West 161 185 4,000  Level Chicago Center
10:47PM 41.0292 -85.2342 300° West 161 185 4,000  Level Chicago Center
10:48PM 41.0531 -85.2864 301° West 163 188 4,000  Level Chicago Center
10:49PM 41.0753 -85.3367 300° West 161 185 4,000 49 Level Chicago Center
10:50PM 41.0981 -85.3881 300° West 161 185 4,100  Climbing Chicago Center
10:51PM 41.1214 -85.4414 300° West 164 189 4,000 -49 Descending Chicago Center
10:52PM 41.1417 -85.4942 297° West 163 188 4,000  Level Chicago Center
10:53PM 41.1606 -85.5403 299° West 155 178 4,000  Level Chicago Center
10:54PM 41.1800 -85.5847 300° West 146 168 4,000  Level Chicago Center
10:55PM 41.1994 -85.6311 299° West 144 166 4,000 49 Level Chicago Center
10:57PM 41.2222 -85.6858 299° West 142 163 4,100 49 Climbing Chicago Center
10:58PM 41.2419 -85.7319 300° West 142 163 4,100 49 Level Chicago Center
10:59PM 41.2608 -85.7794 298° West 143 165 4,200  Climbing Chicago Center
11:00PM 41.2825 -85.8314 299° West 150 173 4,100 -49 Descending Chicago Center
11:01PM 41.3047 -85.8850 299° West 157 181 4,100 49 Level Chicago Center
11:02PM 41.3269 -85.9403 298° West 163 188 4,200  Climbing Chicago Center
11:03PM 41.3489 -85.9942 298° West 166 191 4,100 -49 Descending Chicago Center
11:04PM 41.3717 -86.0500 299° West 168 193 4,100  Level Chicago Center
11:05PM 41.3956 -86.1050 300° West 170 196 4,100  Level Chicago Center
11:06PM 41.4186 -86.1583 300° West 169 194 4,100  Level Chicago Center
11:07PM 41.4394 -86.2100 298° West 165 190 4,100  Level Chicago Center
11:08PM 41.4653 -86.2719 299° West 161 185 4,100  Level Chicago Center
11:09PM 41.4858 -86.3236 298° West 159 183 4,100  Level Chicago Center
11:10PM 41.5078 -86.3756 299° West 160 184 4,100 49 Level Chicago Center
11:11PM 41.5286 -86.4283 298° West 160 184 4,200 49 Climbing Chicago Center
11:12PM 41.5506 -86.4828 298° West 166 191 4,200 -49 Level Chicago Center
11:13PM 41.5719 -86.5378 297° West 166 191 4,100  Descending Chicago Center
11:14PM 41.5944 -86.5928 299° West 169 194 4,200 49 Climbing Chicago Center
11:15PM 41.6181 -86.6467 300° West 168 193 4,200 -49 Level Chicago Center
11:16PM 41.6392 -86.7003 298° West 166 191 4,100 -49 Descending Chicago Center
11:17PM 41.6625 -86.7567 299° West 163 188 4,100  Level Chicago Center
11:18PM 41.6847 -86.8086 300° West 162 186 4,100  Level Chicago Center
11:19PM 41.7036 -86.8619 295° West 160 184 4,100  Level Chicago Center
11:20PM 41.7258 -86.9122 301° West 158 182 4,100  Level Chicago Center
11:21PM 41.7511 -86.9744 299° West 159 183 4,100 49 Level Chicago Center
11:22PM 41.7722 -87.0264 299° West 159 183 4,200  Climbing Chicago Center
11:23PM 41.7922 -87.0778 298° West 158 182 4,100 -148 Descending Chicago Center
11:24PM 41.8133 -87.1289 299° West 157 181 3,900 -341 Descending Chicago Center
11:25PM 41.8358 -87.1772 302° West 156 180 3,400 -390 Descending Chicago Center
11:26PM 41.8536 -87.2272 296° West 154 177 3,100 -148 Descending Chicago Center
11:27PM 41.8547 -87.2797 272° West 147 169 3,100  Level Chicago Center
11:28PM 41.8592 -87.3331 276° West 144 166 3,100  Level Chicago Center
11:29PM 41.8567 -87.3861 266° West 145 167 3,100  Level Chicago Center
11:30PM 41.8453 -87.4508 257° West 148 170 3,100  Level Chicago Center
11:31PM 41.8633 -87.4872 304° West 140 161 3,100  Level Chicago Center
11:32PM 41.9000 -87.4833 North 113 130 3,100  Level Chicago TRACON
11:33PM 41.9333 -87.4833 360° North 114 131 3,100  Level Chicago TRACON
11:34PM 41.9667 -87.5000 340° North 111 128 3,100  Level Chicago TRACON
11:35PM 41.9833 -87.5167 323° Northwest 115 132 3,100  Level Chicago TRACON
11:36PM 42.0167 -87.5333 340° North 117 135 3,100 50 Level Chicago TRACON
11:37PM 42.0500 -87.5333 360° North 115 132 3,200  Climbing Chicago TRACON
11:38PM 42.0833 -87.5500 340° North 112 129 3,100 -50 Descending Chicago TRACON
11:39PM 42.1000 -87.5667 323° Northwest 114 131 3,100  Level Chicago TRACON
11:40PM 42.1333 -87.5833 340° North 126 145 3,100  Level Chicago TRACON
11:41PM 42.1667 -87.6000 340° North 134 154 3,100  Level Chicago TRACON
11:42PM 42.2000 -87.6167 340° North 138 159 3,100 -188 Level Chicago TRACON
11:43PM 42.2392 -87.6569 323° Northwest 135 155 2,700 -267 Descending Chicago Center
11:44PM 42.2506 -87.7139 285° West 159 183 2,500 -98 Descending Chicago Center
11:45PM 42.2486 -87.7772 268° West 169 194 2,500 -197 Level Chicago Center
11:46PM 42.2383 -87.8361 257° West 167 192 2,100 49 Descending Chicago Center
11:47PM 42.2417 -87.8825 276° West 167 192 2,600 198 Climbing Chicago Center
11:48PM 42.2656 -87.9283 305° West 150 173 2,500  Descending Chicago Center
11:49PM 42.2344 -87.9650 221° Southwest 160 184 2,600  Climbing Chicago Center
11:50PM 42.1972 -87.9483 162° South 150 173 2,500 -344 Descending Chicago Center
11:51PM 42.1589 -87.9233 154° Southeast 145 167 1,900 -590 Descending Chicago Center

Login

Don't have an account? Register now (free) for customized features, flight alerts, and more!